createdAt,value
2018-11-12T00:10:03.807Z,101341.00
2018-11-12T00:20:38.242Z,101338.97
2018-11-12T00:25:31.296Z,101349.97
2018-11-12T00:51:40.337Z,101329.51
2018-11-12T00:56:37.825Z,101342.39
2018-11-12T01:01:31.164Z,101342.04
2018-11-12T01:06:25.694Z,101342.56
2018-11-12T01:11:30.245Z,101336.41
2018-11-12T01:31:49.255Z,101340.73
2018-11-12T01:36:32.879Z,101340.46
2018-11-12T01:41:16.895Z,101341.91
2018-11-12T01:46:00.154Z,101338.58
2018-11-12T01:50:43.461Z,101346.67
2018-11-12T01:55:27.943Z,101346.30
2018-11-12T02:00:18.590Z,101340.16
2018-11-12T02:05:02.622Z,101344.73
2018-11-12T02:09:46.019Z,101345.57
2018-11-12T02:14:29.131Z,101344.06
2018-11-12T02:19:12.610Z,101346.75
2018-11-12T02:23:56.391Z,101349.78
2018-11-12T02:28:41.693Z,101358.16
2018-11-12T02:33:25.749Z,101363.87
2018-11-12T02:38:09.071Z,101376.75
2018-11-12T02:42:55.044Z,101375.03
2018-11-12T02:47:39.792Z,101375.95
2018-11-12T02:52:23.080Z,101384.09
2018-11-12T02:57:06.906Z,101383.55
2018-11-12T03:01:50.041Z,101392.32
2018-11-12T03:06:33.346Z,101387.87
2018-11-12T03:11:16.487Z,101386.81
2018-11-12T03:15:59.718Z,101379.17
2018-11-12T03:20:45.139Z,101389.59
2018-11-12T03:25:29.085Z,101382.59
2018-11-12T03:30:14.623Z,101385.63
2018-11-12T03:34:57.890Z,101384.31
2018-11-12T03:39:42.244Z,101386.39
2018-11-12T03:44:25.402Z,101395.78
2018-11-12T03:49:09.363Z,101395.78
2018-11-12T03:53:52.552Z,101390.16
2018-11-12T03:58:40.323Z,101394.95
2018-11-12T04:03:24.459Z,101405.58
2018-11-12T04:08:07.942Z,101414.78
2018-11-12T04:12:56.743Z,101419.09
2018-11-12T04:17:43.598Z,101421.38
2018-11-12T04:22:27.700Z,101430.36
2018-11-12T04:27:11.716Z,101434.36
2018-11-12T04:31:54.978Z,101437.67
2018-11-12T04:36:39.068Z,101438.49
2018-11-12T04:41:25.477Z,101448.67
2018-11-12T04:46:12.067Z,101460.55
2018-11-12T04:50:55.486Z,101457.73
2018-11-12T04:55:40.114Z,101454.34
2018-11-12T05:05:27.499Z,101459.27
2018-11-12T05:10:19.803Z,101458.39
2018-11-12T05:25:21.676Z,101475.47
2018-11-12T05:30:48.708Z,101478.59
2018-11-12T05:37:07.292Z,101493.51
2018-11-12T05:52:28.269Z,101505.94
2018-11-12T06:02:52.780Z,101508.33
2018-11-12T06:08:21.449Z,101511.73
2018-11-12T06:13:05.464Z,101517.39
2018-11-12T06:18:06.582Z,101526.91
2018-11-12T06:22:57.788Z,101528.89
2018-11-12T06:35:42.725Z,101535.35
2018-11-12T07:08:06.858Z,101558.19
2018-11-12T07:12:50.816Z,101560.67
2018-11-12T07:17:33.860Z,101566.22
2018-11-12T07:22:16.815Z,101558.52
2018-11-12T07:26:59.831Z,101561.92
2018-11-12T07:31:42.839Z,101577.00
2018-11-12T07:36:25.985Z,101573.20
2018-11-12T07:41:08.963Z,101575.31
2018-11-12T07:45:53.220Z,101579.06
2018-11-12T07:50:36.285Z,101585.42
2018-11-12T07:55:21.108Z,101591.55
2018-11-12T08:00:05.804Z,101595.63
2018-11-12T08:04:48.774Z,101605.25
2018-11-12T08:09:31.926Z,101603.13
2018-11-12T08:14:14.830Z,101602.30
2018-11-12T08:18:58.018Z,101596.04
2018-11-12T08:23:40.924Z,101597.22
2018-11-12T08:28:23.919Z,101605.27
2018-11-12T08:33:06.831Z,101616.98
2018-11-12T08:37:50.623Z,101615.19
2018-11-12T08:42:33.542Z,101604.62
2018-11-12T08:47:16.500Z,101609.50
2018-11-12T08:51:59.423Z,101610.78
2018-11-12T08:56:43.557Z,101604.66
2018-11-12T09:01:26.443Z,101600.09
2018-11-12T09:06:09.674Z,101591.41
2018-11-12T09:10:52.689Z,101602.28
2018-11-12T09:15:36.577Z,101599.42
2018-11-12T09:20:20.926Z,101592.64
2018-11-12T09:25:03.885Z,101594.41
2018-11-12T09:29:46.750Z,101598.70
2018-11-12T09:34:29.663Z,101595.87
2018-11-12T09:39:14.615Z,101586.73
2018-11-12T09:43:57.518Z,101588.59
2018-11-12T09:48:44.494Z,101580.06
2018-11-12T09:53:27.433Z,101579.62
2018-11-12T09:58:11.547Z,101575.86
2018-11-12T10:02:55.084Z,101574.80
2018-11-12T10:07:42.449Z,101565.98
2018-11-12T10:12:27.312Z,101568.16
2018-11-12T10:17:10.777Z,101565.43
2018-11-12T10:37:42.982Z,101558.38
2018-11-12T10:42:26.070Z,101557.22
2018-11-12T10:47:10.236Z,101552.37
2018-11-12T10:51:53.229Z,101551.48
2018-11-12T10:56:36.291Z,101552.81
2018-11-12T11:01:24.901Z,101550.52
2018-11-12T11:06:13.184Z,101556.08
2018-11-12T11:10:56.135Z,101550.48
2018-11-12T11:15:39.734Z,101551.33
2018-11-12T11:20:22.724Z,101546.35
2018-11-12T11:25:06.784Z,101540.03
2018-11-12T11:29:50.013Z,101542.69
2018-11-12T11:34:33.085Z,101548.84
2018-11-12T11:39:16.395Z,101540.43
2018-11-12T11:43:59.404Z,101532.76
2018-11-12T11:48:42.582Z,101539.49
2018-11-12T11:53:25.643Z,101534.65
2018-11-12T11:58:08.943Z,101532.61
2018-11-12T12:02:53.772Z,101532.66
2018-11-12T12:07:37.129Z,101528.97
2018-11-12T12:12:20.181Z,101530.02
2018-11-12T12:17:04.183Z,101531.62
2018-11-12T12:21:48.415Z,101528.80
2018-11-12T12:26:32.072Z,101533.72
2018-11-12T12:31:15.127Z,101527.37
2018-11-12T12:35:58.610Z,101533.33
2018-11-12T12:40:41.748Z,101538.36
2018-11-12T12:45:26.123Z,101530.14
2018-11-12T12:50:10.912Z,101533.90
2018-11-12T12:54:53.941Z,101535.42
2018-11-12T12:59:36.980Z,101534.78
2018-11-12T13:04:21.408Z,101535.55
2018-11-12T13:09:06.905Z,101538.74
2018-11-12T13:13:49.947Z,101537.19
2018-11-12T13:18:34.039Z,101542.27
2018-11-12T13:23:17.111Z,101541.13
2018-11-12T13:28:02.347Z,101542.61
2018-11-12T13:32:45.863Z,101551.98
2018-11-12T13:37:29.877Z,101557.28
2018-11-12T13:42:12.856Z,101543.05
2018-11-12T13:46:57.567Z,101543.43
2018-11-12T13:51:40.625Z,101549.94
2018-11-12T13:56:23.722Z,101560.87
2018-11-12T14:01:06.717Z,101564.59
2018-11-12T14:05:50.279Z,101565.22
2018-11-12T14:10:33.998Z,101566.52
2018-11-12T14:15:19.200Z,101569.79
2018-11-12T14:20:03.094Z,101567.45
2018-11-12T14:24:46.673Z,101572.70
2018-11-12T14:29:31.395Z,101566.47
2018-11-12T14:34:15.343Z,101571.33
2018-11-12T14:38:58.558Z,101571.45
2018-11-12T14:43:41.912Z,101579.36
2018-11-12T14:48:25.414Z,101579.06
2018-11-12T14:53:08.499Z,101585.05
2018-11-12T14:57:52.506Z,101593.67
2018-11-12T15:02:35.553Z,101599.52
2018-11-12T15:07:19.851Z,101606.60
2018-11-12T15:12:03.000Z,101610.97
2018-11-12T15:16:47.208Z,101614.02
2018-11-12T15:21:30.260Z,101627.19
2018-11-12T15:26:13.443Z,101638.52
2018-11-12T15:30:56.620Z,101645.76
2018-11-12T15:35:40.007Z,101650.77
2018-11-12T15:40:23.208Z,101660.84
2018-11-12T15:45:08.686Z,101663.80
2018-11-12T15:49:54.490Z,101658.50
2018-11-12T15:54:50.122Z,101665.56
2018-11-12T15:59:33.358Z,101670.16
2018-11-12T16:04:20.607Z,101669.00
2018-11-12T16:09:05.678Z,101664.53
2018-11-12T16:13:48.825Z,101658.40
2018-11-12T16:18:33.529Z,101671.08
2018-11-12T16:23:16.674Z,101667.16
2018-11-12T16:28:06.019Z,101673.83
2018-11-12T16:32:51.273Z,101672.86
2018-11-12T16:37:36.612Z,101671.24
2018-11-12T16:42:20.775Z,101681.22
2018-11-12T16:47:04.089Z,101680.96
2018-11-12T16:51:48.853Z,101677.34
2018-11-12T16:56:32.445Z,101677.13
2018-11-12T17:01:17.717Z,101669.34
2018-11-12T17:06:02.289Z,101674.36
2018-11-12T17:10:46.839Z,101681.09
2018-11-12T17:15:30.316Z,101676.26
2018-11-12T17:20:19.806Z,101680.09
2018-11-12T17:25:03.645Z,101675.62
2018-11-12T17:29:46.962Z,101683.99
2018-11-12T17:34:31.513Z,101694.00
2018-11-12T17:39:14.890Z,101697.61
2018-11-12T17:44:00.131Z,101703.36
2018-11-12T17:48:43.375Z,101711.12
2018-11-12T17:53:26.777Z,101716.67
2018-11-12T17:58:18.240Z,101719.09
2018-11-12T18:03:12.383Z,101723.14
2018-11-12T18:07:57.668Z,101729.03
2018-11-12T18:12:50.042Z,101728.64
2018-11-12T18:23:46.026Z,101737.58
2018-11-12T19:21:34.405Z,101770.25
2018-11-12T19:26:30.058Z,101763.72
2018-11-12T19:36:35.906Z,101767.87
2018-11-12T19:41:39.780Z,101768.16
2018-11-12T19:46:36.917Z,101768.61
2018-11-12T20:30:41.249Z,101763.23
2018-11-12T20:36:11.409Z,101767.50
2018-11-12T21:39:48.496Z,101789.26
2018-11-12T21:44:43.791Z,101796.95
2018-11-12T21:55:24.492Z,101798.05
2018-11-12T23:16:08.973Z,101798.92
2018-11-12T23:43:03.935Z,101809.30
2018-11-12T23:47:54.999Z,101798.97
